createdAt,value
2019-03-23T00:01:20.768Z,7.86
2019-03-23T00:03:47.025Z,7.69
2019-03-23T00:06:13.327Z,7.62
2019-03-23T00:08:39.638Z,7.56
2019-03-23T00:11:05.947Z,7.51
2019-03-23T00:13:32.258Z,7.51
2019-03-23T00:15:58.573Z,7.52
2019-03-23T00:18:24.880Z,7.47
2019-03-23T00:20:51.188Z,7.35
2019-03-23T00:23:17.493Z,7.31
2019-03-23T00:25:43.801Z,7.23
2019-03-23T00:28:10.106Z,7.03
2019-03-23T00:30:36.423Z,6.96
2019-03-23T00:33:02.730Z,6.82
2019-03-23T00:35:29.057Z,6.77
2019-03-23T00:37:55.362Z,6.98
2019-03-23T00:40:21.666Z,7.08
2019-03-23T00:42:47.972Z,7.02
2019-03-23T00:45:14.278Z,6.91
2019-03-23T00:47:40.590Z,6.72
2019-03-23T00:50:06.897Z,6.54
2019-03-23T00:52:33.204Z,6.44
2019-03-23T00:54:59.502Z,6.40
2019-03-23T00:57:25.832Z,6.47
2019-03-23T00:59:52.134Z,6.50
2019-03-23T01:02:18.471Z,6.35
2019-03-23T01:04:44.772Z,6.32
2019-03-23T01:07:11.073Z,6.59
2019-03-23T01:09:37.387Z,6.55
2019-03-23T01:12:03.690Z,6.22
2019-03-23T01:14:30.009Z,5.99
2019-03-23T01:16:56.319Z,5.98
2019-03-23T01:19:22.630Z,5.99
2019-03-23T01:21:48.928Z,6.06
2019-03-23T01:24:15.257Z,6.07
2019-03-23T01:26:41.560Z,6.15
2019-03-23T01:29:07.865Z,6.46
2019-03-23T01:31:34.170Z,6.62
2019-03-23T01:34:00.471Z,6.76
2019-03-23T01:36:26.779Z,6.72
2019-03-23T01:38:53.101Z,6.69
2019-03-23T01:41:19.420Z,6.61
2019-03-23T01:43:45.711Z,6.63
2019-03-23T01:46:12.043Z,6.67
2019-03-23T01:48:38.343Z,6.66
2019-03-23T01:51:04.648Z,6.68
2019-03-23T01:53:30.960Z,6.80
2019-03-23T01:55:57.271Z,6.84
2019-03-23T01:58:23.576Z,6.88
2019-03-23T02:00:49.889Z,6.84
2019-03-23T02:03:16.201Z,6.85
2019-03-23T02:05:42.510Z,6.92
2019-03-23T02:08:08.808Z,6.88
2019-03-23T02:10:35.145Z,6.80
2019-03-23T02:13:01.449Z,6.81
2019-03-23T02:15:27.761Z,6.62
2019-03-23T02:17:54.064Z,6.60
2019-03-23T02:20:20.393Z,6.54
2019-03-23T02:22:46.702Z,6.49
2019-03-23T02:25:13.008Z,6.26
2019-03-23T02:27:39.325Z,6.14
2019-03-23T02:30:05.634Z,6.23
2019-03-23T02:32:31.944Z,6.19
2019-03-23T02:34:58.247Z,5.82
2019-03-23T02:37:27.958Z,5.85
2019-03-23T02:39:50.935Z,5.81
2019-03-23T02:42:17.242Z,5.66
2019-03-23T02:44:43.541Z,5.64
2019-03-23T02:47:09.865Z,5.61
2019-03-23T02:49:36.179Z,5.57
2019-03-23T02:52:02.481Z,5.53
2019-03-23T02:54:28.801Z,5.39
2019-03-23T02:56:55.103Z,5.36
2019-03-23T02:59:21.411Z,5.24
2019-03-23T03:01:47.714Z,5.13
2019-03-23T03:04:14.057Z,5.03
2019-03-23T03:06:40.357Z,5.10
2019-03-23T03:09:06.660Z,5.09
2019-03-23T03:11:32.977Z,5.00
2019-03-23T03:13:59.283Z,4.93
2019-03-23T03:16:25.591Z,4.84
2019-03-23T03:18:51.897Z,4.66
2019-03-23T03:21:18.213Z,4.62
2019-03-23T03:23:44.526Z,4.63
2019-03-23T03:26:10.863Z,4.68
2019-03-23T03:28:37.165Z,4.67
2019-03-23T03:31:03.494Z,4.63
2019-03-23T03:33:29.777Z,4.65
2019-03-23T03:35:56.083Z,4.53
2019-03-23T03:38:22.396Z,4.61
2019-03-23T03:40:48.701Z,4.49
2019-03-23T03:43:15.012Z,4.64
2019-03-23T03:45:41.318Z,4.46
2019-03-23T03:48:07.616Z,4.09
2019-03-23T03:50:33.928Z,3.74
2019-03-23T03:53:00.235Z,3.60
2019-03-23T03:55:26.570Z,3.66
2019-03-23T03:57:52.874Z,4.05
2019-03-23T04:00:19.213Z,4.31
2019-03-23T04:02:45.513Z,4.32
2019-03-23T04:05:11.812Z,4.15
2019-03-23T04:07:38.116Z,4.08
2019-03-23T04:10:04.426Z,4.05
2019-03-23T04:12:30.732Z,4.08
2019-03-23T04:14:57.043Z,4.21
2019-03-23T04:17:23.378Z,4.05
2019-03-23T04:19:49.689Z,4.20
2019-03-23T04:22:15.981Z,4.25
2019-03-23T04:24:42.282Z,4.20
2019-03-23T04:27:08.588Z,4.25
2019-03-23T04:29:34.901Z,4.10
2019-03-23T04:32:01.201Z,4.13
2019-03-23T04:34:27.543Z,4.28
2019-03-23T04:36:53.853Z,4.22
2019-03-23T04:39:20.151Z,4.18
2019-03-23T04:41:46.464Z,4.51
2019-03-23T04:44:12.811Z,4.71
2019-03-23T04:46:39.128Z,4.80
2019-03-23T04:49:05.429Z,4.81
2019-03-23T04:51:31.738Z,5.06
2019-03-23T04:53:58.054Z,5.34
2019-03-23T04:56:24.387Z,5.34
2019-03-23T04:58:50.691Z,5.45
2019-03-23T05:01:16.994Z,5.63
2019-03-23T05:03:43.308Z,5.62
2019-03-23T05:06:09.620Z,5.74
2019-03-23T05:08:35.927Z,5.89
2019-03-23T05:11:02.247Z,6.08
2019-03-23T05:13:28.551Z,6.39
2019-03-23T05:15:54.863Z,6.82
2019-03-23T05:18:21.218Z,6.80
2019-03-23T05:20:47.528Z,6.63
2019-03-23T05:23:13.844Z,6.73
2019-03-23T05:25:40.216Z,6.71
2019-03-23T05:28:06.543Z,6.92
2019-03-23T05:30:32.849Z,7.38
2019-03-23T05:32:59.167Z,7.77
2019-03-23T05:35:25.478Z,7.99
2019-03-23T05:37:51.789Z,7.90
2019-03-23T05:40:18.102Z,7.91
2019-03-23T05:42:44.410Z,8.20
2019-03-23T05:45:10.719Z,8.69
2019-03-23T05:47:37.067Z,8.88
2019-03-23T05:50:03.429Z,8.89
2019-03-23T05:52:29.764Z,8.96
2019-03-23T05:54:56.078Z,8.81
2019-03-23T05:57:22.413Z,9.07
2019-03-23T05:59:48.732Z,9.20
2019-03-23T06:02:15.038Z,9.18
2019-03-23T06:04:41.683Z,9.19
2019-03-23T06:07:07.984Z,9.52
2019-03-23T06:09:34.315Z,9.98
2019-03-23T06:12:00.624Z,10.04
2019-03-23T06:14:26.931Z,10.28
2019-03-23T06:16:53.248Z,10.77
2019-03-23T06:19:19.562Z,10.41
2019-03-23T06:21:45.890Z,10.55
2019-03-23T06:24:12.207Z,10.74
2019-03-23T06:26:38.522Z,10.90
2019-03-23T06:29:04.843Z,11.11
2019-03-23T06:31:31.158Z,11.14
2019-03-23T06:33:57.463Z,11.25
2019-03-23T06:36:23.812Z,11.37
2019-03-23T06:38:50.123Z,11.67
2019-03-23T06:41:16.461Z,11.93
2019-03-23T06:43:42.774Z,11.89
2019-03-23T06:46:09.090Z,12.19
2019-03-23T06:48:35.400Z,12.52
2019-03-23T06:51:03.283Z,12.89
2019-03-23T06:53:28.021Z,13.34
2019-03-23T06:55:54.330Z,13.27
2019-03-23T06:58:20.659Z,13.33
2019-03-23T07:00:46.979Z,13.16
2019-03-23T07:03:13.294Z,13.00
2019-03-23T07:05:39.601Z,13.42
2019-03-23T07:08:05.906Z,13.47
2019-03-23T07:10:32.215Z,13.48
2019-03-23T07:12:58.520Z,13.65
2019-03-23T07:15:24.833Z,13.91
2019-03-23T07:17:51.139Z,14.13
2019-03-23T07:20:17.446Z,14.17
2019-03-23T07:22:43.766Z,13.94
2019-03-23T07:25:10.993Z,14.37
2019-03-23T07:27:37.513Z,14.37
2019-03-23T07:30:03.830Z,14.41
2019-03-23T07:32:30.145Z,14.61
2019-03-23T07:34:56.451Z,14.44
2019-03-23T07:37:22.771Z,14.63
2019-03-23T07:39:49.112Z,14.34
2019-03-23T07:42:15.443Z,14.35
2019-03-23T07:44:41.757Z,14.54
2019-03-23T07:47:08.062Z,15.13
2019-03-23T07:49:34.396Z,15.58
2019-03-23T07:52:00.730Z,15.58
2019-03-23T07:54:27.036Z,15.82
2019-03-23T07:56:53.354Z,15.85
2019-03-23T07:59:19.661Z,15.61
2019-03-23T08:01:45.968Z,15.18
2019-03-23T08:04:12.303Z,15.12
2019-03-23T08:06:38.613Z,15.41
2019-03-23T08:09:04.935Z,15.57
2019-03-23T08:11:31.249Z,15.75
2019-03-23T08:13:57.558Z,15.90
2019-03-23T08:16:23.880Z,16.09
2019-03-23T08:18:50.188Z,16.12
2019-03-23T08:21:16.499Z,15.98
2019-03-23T08:23:42.805Z,16.06
2019-03-23T08:26:09.124Z,16.56
2019-03-23T08:28:35.433Z,16.93
2019-03-23T08:31:01.746Z,16.87
2019-03-23T08:33:28.055Z,16.58
2019-03-23T08:35:54.363Z,16.33
2019-03-23T08:38:20.709Z,16.85
2019-03-23T08:40:47.020Z,17.22
2019-03-23T08:43:13.319Z,17.47
2019-03-23T08:45:39.648Z,17.77
2019-03-23T08:48:05.944Z,17.75
2019-03-23T08:50:32.279Z,18.01
2019-03-23T08:52:58.580Z,18.17
2019-03-23T08:55:24.893Z,18.11
2019-03-23T08:57:51.214Z,17.60
2019-03-23T09:00:17.532Z,17.95
2019-03-23T09:02:43.843Z,18.40
2019-03-23T09:05:10.153Z,18.81
2019-03-23T09:07:36.469Z,18.97
2019-03-23T09:10:02.805Z,18.56
2019-03-23T09:12:29.104Z,18.32
2019-03-23T09:14:55.582Z,17.96
2019-03-23T09:17:21.914Z,17.71
2019-03-23T09:19:48.287Z,18.31
2019-03-23T09:22:14.592Z,18.83
2019-03-23T09:24:40.999Z,19.38
2019-03-23T09:27:07.303Z,19.28
2019-03-23T09:29:33.682Z,19.05
2019-03-23T09:31:59.988Z,19.35
2019-03-23T09:34:26.342Z,19.63
2019-03-23T09:36:52.615Z,19.92
2019-03-23T09:39:18.949Z,20.29
2019-03-23T09:41:45.253Z,19.98
2019-03-23T09:44:11.647Z,19.62
2019-03-23T09:46:37.988Z,19.96
2019-03-23T09:49:04.352Z,20.12
2019-03-23T09:51:30.661Z,19.74
2019-03-23T09:53:57.060Z,19.70
2019-03-23T09:56:23.374Z,20.20
2019-03-23T09:58:49.688Z,20.75
2019-03-23T10:01:16.022Z,21.08
2019-03-23T10:03:42.965Z,20.92
2019-03-23T10:06:08.695Z,20.76
2019-03-23T10:08:35.002Z,21.42
2019-03-23T10:11:01.368Z,21.37
2019-03-23T10:13:27.811Z,21.26
2019-03-23T10:15:54.120Z,21.03
2019-03-23T10:18:20.438Z,21.66
2019-03-23T10:20:46.740Z,22.12
2019-03-23T10:23:13.043Z,22.30
2019-03-23T10:25:39.356Z,22.15
2019-03-23T10:28:05.664Z,21.46
2019-03-23T10:30:32.145Z,21.09
2019-03-23T10:32:58.451Z,21.14
2019-03-23T10:35:24.761Z,21.76
2019-03-23T10:37:51.087Z,21.54
2019-03-23T10:40:17.608Z,21.75
2019-03-23T10:42:43.833Z,21.95
2019-03-23T10:45:10.103Z,22.17
2019-03-23T10:47:36.530Z,21.89
2019-03-23T10:50:02.716Z,21.46
2019-03-23T10:52:29.025Z,21.50
2019-03-23T10:54:55.469Z,21.70
2019-03-23T10:57:21.783Z,21.78
2019-03-23T10:59:48.183Z,22.08
2019-03-23T11:02:14.523Z,22.61
2019-03-23T11:04:40.836Z,22.30
2019-03-23T11:07:07.144Z,22.13
2019-03-23T11:09:33.460Z,22.12
2019-03-23T11:11:59.791Z,22.01
2019-03-23T11:14:26.104Z,21.70
2019-03-23T11:16:52.417Z,21.97
2019-03-23T11:19:18.733Z,21.84
2019-03-23T11:21:45.040Z,21.88
2019-03-23T11:24:11.363Z,21.69
2019-03-23T11:26:37.667Z,21.80
2019-03-23T11:29:03.972Z,21.86
2019-03-23T11:31:31.092Z,21.87
2019-03-23T11:33:56.605Z,22.37
2019-03-23T11:36:22.904Z,22.39
2019-03-23T11:38:49.219Z,22.74
2019-03-23T11:41:15.528Z,23.02
2019-03-23T11:43:41.837Z,23.02
2019-03-23T11:46:08.160Z,22.26
2019-03-23T11:48:34.466Z,22.22
2019-03-23T11:51:00.787Z,22.57
2019-03-23T11:53:27.122Z,22.16
2019-03-23T11:55:53.429Z,22.22
2019-03-23T11:58:19.735Z,22.28
2019-03-23T12:00:46.043Z,22.27
2019-03-23T12:03:12.423Z,21.72
2019-03-23T12:05:38.723Z,21.72
2019-03-23T12:08:05.037Z,22.13
2019-03-23T12:10:31.345Z,22.46
2019-03-23T12:12:57.709Z,22.52
2019-03-23T12:15:24.013Z,22.55
2019-03-23T12:17:50.321Z,22.47
2019-03-23T12:20:16.635Z,21.90
2019-03-23T12:22:42.957Z,21.54
2019-03-23T12:25:09.309Z,21.54
2019-03-23T12:27:35.622Z,21.91
2019-03-23T12:30:07.030Z,21.82
2019-03-23T12:32:28.243Z,22.12
2019-03-23T12:34:54.724Z,22.30
2019-03-23T12:37:21.112Z,22.27
2019-03-23T12:39:47.386Z,22.09
2019-03-23T12:42:13.697Z,21.97
2019-03-23T12:44:40.000Z,22.09
2019-03-23T12:47:06.319Z,21.88
2019-03-23T12:49:32.621Z,21.92
2019-03-23T12:51:58.991Z,22.31
2019-03-23T12:54:25.321Z,22.58
2019-03-23T12:56:51.619Z,22.62
2019-03-23T12:59:17.932Z,22.72
2019-03-23T13:01:44.333Z,23.02
2019-03-23T13:04:10.661Z,22.31
2019-03-23T13:06:36.959Z,21.74
2019-03-23T13:09:03.272Z,21.37
2019-03-23T13:11:34.951Z,21.14
2019-03-23T13:13:55.893Z,21.18
2019-03-23T13:16:22.201Z,21.02
2019-03-23T13:18:48.514Z,20.88
2019-03-23T13:21:14.821Z,21.01
2019-03-23T13:23:41.130Z,20.96
2019-03-23T13:26:07.454Z,21.01
2019-03-23T13:28:33.753Z,21.02
2019-03-23T13:31:00.069Z,21.03
2019-03-23T13:33:26.378Z,21.14
2019-03-23T13:35:52.688Z,21.26
2019-03-23T13:38:19.006Z,21.19
2019-03-23T13:40:45.311Z,21.29
2019-03-23T13:43:11.629Z,21.17
2019-03-23T13:45:42.650Z,21.12
2019-03-23T13:48:04.249Z,21.08
2019-03-23T13:50:30.575Z,20.91
2019-03-23T13:52:56.885Z,20.83
2019-03-23T13:55:23.195Z,20.80
2019-03-23T13:57:49.510Z,20.78
2019-03-23T14:00:15.835Z,20.68
2019-03-23T14:02:42.149Z,20.59
2019-03-23T14:05:15.711Z,20.59
2019-03-23T14:07:34.797Z,20.52
2019-03-23T14:10:01.173Z,20.53
2019-03-23T14:12:27.487Z,20.52
2019-03-23T14:14:53.799Z,20.52
2019-03-23T14:17:20.105Z,20.45
2019-03-23T14:19:46.411Z,20.45
2019-03-23T14:22:12.720Z,20.42
2019-03-23T14:24:39.054Z,20.39
2019-03-23T14:27:05.360Z,20.44
2019-03-23T14:29:31.676Z,20.44
2019-03-23T14:31:57.989Z,20.47
2019-03-23T14:34:24.307Z,20.48
2019-03-23T14:36:50.655Z,20.40
2019-03-23T14:39:16.935Z,20.30
2019-03-23T14:41:43.257Z,20.24
2019-03-23T14:44:10.229Z,20.09
2019-03-23T14:46:37.072Z,19.95
2019-03-23T14:49:03.386Z,19.96
2019-03-23T14:51:29.686Z,19.94
2019-03-23T14:53:56.000Z,19.92
2019-03-23T14:56:22.311Z,19.82
2019-03-23T14:58:48.639Z,19.74
2019-03-23T15:01:14.963Z,19.71
2019-03-23T15:03:41.272Z,19.62
2019-03-23T15:06:07.584Z,19.55
2019-03-23T15:08:33.893Z,19.54
2019-03-23T15:11:00.211Z,19.54
2019-03-23T15:13:26.523Z,19.51
2019-03-23T15:15:52.829Z,19.35
2019-03-23T15:18:19.167Z,19.29
2019-03-23T15:20:45.500Z,19.23
2019-03-23T15:23:11.843Z,19.20
2019-03-23T15:25:39.534Z,19.19
2019-03-23T15:28:04.597Z,19.21
2019-03-23T15:30:30.924Z,19.20
2019-03-23T15:32:57.231Z,19.11
2019-03-23T15:35:23.541Z,19.05
2019-03-23T15:37:49.846Z,18.97
2019-03-23T15:40:16.188Z,18.93
2019-03-23T15:42:42.558Z,18.89
2019-03-23T15:45:08.863Z,18.87
2019-03-23T15:47:35.172Z,18.84
2019-03-23T15:50:01.513Z,18.85
2019-03-23T15:52:27.825Z,18.80
2019-03-23T15:54:54.143Z,18.73
2019-03-23T15:57:20.440Z,18.64
2019-03-23T15:59:46.766Z,18.55
2019-03-23T16:02:13.106Z,18.46
2019-03-23T16:04:39.415Z,18.38
2019-03-23T16:07:05.835Z,18.27
2019-03-23T16:09:32.162Z,18.16
2019-03-23T16:11:58.479Z,18.11
2019-03-23T16:14:24.797Z,18.08
2019-03-23T16:16:51.127Z,18.02
2019-03-23T16:19:17.433Z,17.92
2019-03-23T16:21:43.741Z,17.85
2019-03-23T16:24:10.075Z,17.75
2019-03-23T16:26:36.412Z,17.68
2019-03-23T16:29:02.732Z,17.63
2019-03-23T16:31:29.074Z,17.61
2019-03-23T16:33:55.381Z,17.48
2019-03-23T16:36:21.684Z,17.44
2019-03-23T16:38:48.020Z,17.38
2019-03-23T16:41:14.325Z,17.29
2019-03-23T16:43:40.662Z,17.22
2019-03-23T16:46:07.119Z,17.25
2019-03-23T16:48:33.507Z,17.16
2019-03-23T16:50:59.821Z,17.21
2019-03-23T16:53:26.132Z,17.15
2019-03-23T16:55:52.453Z,17.08
2019-03-23T16:58:18.758Z,16.99
2019-03-23T17:00:45.110Z,16.94
2019-03-23T17:03:11.420Z,16.84
2019-03-23T17:05:37.751Z,16.84
2019-03-23T17:08:04.071Z,17.06
2019-03-23T17:10:30.443Z,17.11
2019-03-23T17:12:56.754Z,16.98
2019-03-23T17:15:23.064Z,16.63
2019-03-23T17:17:49.399Z,16.39
2019-03-23T17:20:15.715Z,16.34
2019-03-23T17:22:42.041Z,16.28
2019-03-23T17:25:08.358Z,16.17
2019-03-23T17:27:34.700Z,16.10
2019-03-23T17:30:01.056Z,16.02
2019-03-23T17:32:27.371Z,15.99
2019-03-23T17:34:53.681Z,16.01
2019-03-23T17:37:19.988Z,15.90
2019-03-23T17:39:46.304Z,15.79
2019-03-23T17:42:12.645Z,15.62
2019-03-23T17:44:38.942Z,15.51
2019-03-23T17:47:05.249Z,15.41
2019-03-23T17:49:31.564Z,15.35
2019-03-23T17:51:57.895Z,15.36
2019-03-23T17:54:24.226Z,15.32
2019-03-23T17:56:50.539Z,15.30
2019-03-23T17:59:16.878Z,15.13
2019-03-23T18:01:43.193Z,14.98
2019-03-23T18:04:09.508Z,15.00
2019-03-23T18:06:35.829Z,14.94
2019-03-23T18:09:02.144Z,14.80
2019-03-23T18:11:28.450Z,14.63
2019-03-23T18:13:54.755Z,14.67
2019-03-23T18:16:21.065Z,14.65
2019-03-23T18:18:47.380Z,14.69
2019-03-23T18:21:13.717Z,14.71
2019-03-23T18:23:40.049Z,14.59
2019-03-23T18:26:06.356Z,14.55
2019-03-23T18:28:32.689Z,14.58
2019-03-23T18:30:58.992Z,14.57
2019-03-23T18:33:25.333Z,14.53
2019-03-23T18:35:51.646Z,14.29
2019-03-23T18:38:21.125Z,14.14
2019-03-23T18:40:47.437Z,14.10
2019-03-23T18:43:13.740Z,14.18
2019-03-23T18:45:40.057Z,14.21
2019-03-23T18:48:06.396Z,14.26
2019-03-23T18:50:32.707Z,14.33
2019-03-23T18:52:59.019Z,14.38
2019-03-23T18:55:25.352Z,14.55
2019-03-23T18:57:51.664Z,14.60
2019-03-23T19:00:17.971Z,14.67
2019-03-23T19:02:44.284Z,14.71
2019-03-23T19:05:10.592Z,14.83
2019-03-23T19:07:36.911Z,14.85
2019-03-23T19:10:03.225Z,14.47
2019-03-23T19:12:29.534Z,14.41
2019-03-23T19:14:55.843Z,14.57
2019-03-23T19:17:22.183Z,14.61
2019-03-23T19:19:48.657Z,14.56
2019-03-23T19:22:14.804Z,14.64
2019-03-23T19:24:41.122Z,14.55
2019-03-23T19:27:07.433Z,14.31
2019-03-23T19:29:33.757Z,14.19
2019-03-23T19:32:01.882Z,14.17
2019-03-23T19:34:26.467Z,14.37
2019-03-23T19:36:52.787Z,14.51
2019-03-23T19:39:19.096Z,14.79
2019-03-23T19:41:45.401Z,14.84
2019-03-23T19:44:11.714Z,14.59
2019-03-23T19:46:38.022Z,14.62
2019-03-23T19:49:04.325Z,14.62
2019-03-23T19:51:30.662Z,14.70
2019-03-23T19:53:56.975Z,14.55
2019-03-23T19:56:23.284Z,14.24
2019-03-23T19:58:49.591Z,14.02
2019-03-23T20:01:15.902Z,13.78
2019-03-23T20:03:42.214Z,13.73
2019-03-23T20:06:08.526Z,13.86
2019-03-23T20:08:34.970Z,13.77
2019-03-23T20:11:01.280Z,13.43
2019-03-23T20:13:27.594Z,12.98
2019-03-23T20:15:53.905Z,12.87
2019-03-23T20:18:20.247Z,12.90
2019-03-23T20:20:46.521Z,13.10
2019-03-23T20:23:12.832Z,13.52
2019-03-23T20:25:39.913Z,13.69
2019-03-23T20:28:05.468Z,13.25
2019-03-23T20:30:31.813Z,12.76
2019-03-23T20:32:58.395Z,12.59
2019-03-23T20:35:24.720Z,12.56
2019-03-23T20:37:51.028Z,12.43
2019-03-23T20:40:17.331Z,12.30
2019-03-23T20:42:43.937Z,12.19
2019-03-23T20:45:09.958Z,12.25
2019-03-23T20:47:36.261Z,12.28
2019-03-23T20:50:02.568Z,12.03
2019-03-23T20:52:28.876Z,11.89
2019-03-23T20:54:55.185Z,11.75
2019-03-23T20:57:24.063Z,11.71
2019-03-23T20:59:47.958Z,11.81
2019-03-23T21:02:14.270Z,11.85
2019-03-23T21:04:40.586Z,11.92
2019-03-23T21:07:06.894Z,11.94
2019-03-23T21:09:33.229Z,11.94
2019-03-23T21:11:59.536Z,11.69
2019-03-23T21:14:25.835Z,11.49
2019-03-23T21:16:52.151Z,11.22
2019-03-23T21:19:18.461Z,11.00
2019-03-23T21:21:44.772Z,11.01
2019-03-23T21:24:11.096Z,10.94
2019-03-23T21:26:37.429Z,10.99
2019-03-23T21:29:03.797Z,11.08
2019-03-23T21:31:30.125Z,11.08
2019-03-23T21:33:56.439Z,11.16
2019-03-23T21:36:22.796Z,10.84
2019-03-23T21:38:49.065Z,10.59
2019-03-23T21:41:15.374Z,10.42
2019-03-23T21:43:41.680Z,10.23
2019-03-23T21:46:07.986Z,10.11
2019-03-23T21:48:34.327Z,9.99
2019-03-23T21:51:00.626Z,9.99
2019-03-23T21:53:26.935Z,10.00
2019-03-23T21:55:53.247Z,10.07
2019-03-23T21:58:19.557Z,10.01
2019-03-23T22:00:45.875Z,9.96
2019-03-23T22:03:12.175Z,9.96
2019-03-23T22:05:38.553Z,9.84
2019-03-23T22:08:04.834Z,9.80
2019-03-23T22:10:31.142Z,9.69
2019-03-23T22:12:57.551Z,9.53
2019-03-23T22:15:23.886Z,9.34
2019-03-23T22:17:50.219Z,8.99
2019-03-23T22:20:16.518Z,8.66
2019-03-23T22:22:42.822Z,8.46
2019-03-23T22:25:09.129Z,8.26
2019-03-23T22:27:35.467Z,8.13
2019-03-23T22:30:01.859Z,8.12
2019-03-23T22:32:28.209Z,8.06
2019-03-23T22:34:54.509Z,8.03
2019-03-23T22:37:20.864Z,8.05
2019-03-23T22:39:47.128Z,7.99
2019-03-23T22:42:13.465Z,7.87
2019-03-23T22:44:39.775Z,7.83
2019-03-23T22:47:06.087Z,7.74
2019-03-23T22:49:32.415Z,7.65
2019-03-23T22:51:58.734Z,7.56
2019-03-23T22:54:25.055Z,7.40
2019-03-23T22:56:51.366Z,7.32
2019-03-23T22:59:17.760Z,7.31
2019-03-23T23:01:44.030Z,7.33
2019-03-23T23:04:10.342Z,7.70
2019-03-23T23:06:36.644Z,7.94
2019-03-23T23:09:02.949Z,8.09
2019-03-23T23:11:29.254Z,8.09
2019-03-23T23:13:55.563Z,8.05
2019-03-23T23:16:21.864Z,8.05
2019-03-23T23:18:48.186Z,8.06
2019-03-23T23:21:14.528Z,8.07
2019-03-23T23:23:40.804Z,8.05
2019-03-23T23:26:07.106Z,8.01
2019-03-23T23:28:33.417Z,7.99
2019-03-23T23:30:59.731Z,7.93
2019-03-23T23:33:26.107Z,7.91
2019-03-23T23:35:52.484Z,7.89
2019-03-23T23:38:18.796Z,7.92
2019-03-23T23:40:45.102Z,7.85
2019-03-23T23:43:11.435Z,7.80
2019-03-23T23:45:37.742Z,7.79
2019-03-23T23:48:04.051Z,7.73
2019-03-23T23:50:30.363Z,7.74
2019-03-23T23:52:56.679Z,7.78
2019-03-23T23:55:23.004Z,7.84
2019-03-23T23:57:49.307Z,7.83
